Kezdőlap
METAR-TAF:

METAR-TAF

Repülőterek :

Ndola, Zambia

földrajzi szélesség: 12-59-50S, földrajzi hosszúság: 028-39-50E, magasság: 1270 m

METAR: hiányzik

Idő: 02:28 (00:28 UTC)

Előrejelzés

A jelentés 8 órával és 28 perccel ezelõtt készült, 16:00 UTC
Az előrejelzés 16-én 18 óra UTC és 17-én 24 óra UTC között érvényes
Kelet-délkeleti szél 5 kt
Látótávolság 10 km, vagy több
felhőtlen 1500 m magasságban, és nincs gomolyfelhõ
17-én 04 óra UTC és 17-én 06 óra UTC között fokozatosan kialakuló
Kelet-délkeleti szél 10 kt széllökések: 15 kt
Látótávolság: 7000 m
füst
17-én 12 óra UTC és 17-én 14 óra UTC között fokozatosan kialakuló
Délkeleti szél 10 kt
17-én 1700 órától UTC szerint
Látótávolság 10 km, vagy több
felhőtlen 1500 m magasságban, és nincs gomolyfelhõ

TAF: FLSK 161600Z 1618/1724 12005KT CAVOK BECMG 1704/1706 12010G15KT 7000 FU NSC BECMG 1712/1714 13010KT FM171700 CAVOK

Meteorológiai megfigyelések és előrejelzések több, mint 4000 repülőtéren (METAR és TAF jelentéseket).

A térképen piros és sárga pontok jelzik az elérhető meteorológiai állomásokat.

Mozgassa az egeret a pont fölött, hogy megjelenjen az állomás neve.

Azután kattintson az időjárási megfigyelések és előrejelzések megtekintéséhez.

A térkép megváltoztatása: kattintson a fekete keresztel jelölt zöld gombra ráközelítéshez, a vonallal jelölt zöld gombra távolításhoz, vagy a zöld nyilakra a szomszédos térképek eléréséhez.


METAR-TAF: